DON PEDRO RESERVOIR (DNP)

Elevation: 830' · TUOLUMNE R basin · Operator: Turlock Irrigation District

Provisional data, subject to change.
Query executed Sunday at 20:18:16   clock

Select a sensor type for a plot of data.
Note: Reservoir Flows are daily averages.

Earlier

Date RES ELE    STORAGE    RES CHG    TOC STO    ABV TOC    OUTFLOW    INFLOW    PPT INC   
 FEET   AF   AF   AF   AF   CFS   CFS   INCHES  
04/25/2015 706.02 842341 -1350 1690000 -- 1563 882 0.00
04/26/2015 705.92 841666 -675 1690000 -848334 1241 900 0.00
04/27/2015 705.93 841666 0 1690000 -848334 811 811 0.00
04/28/2015 706.08 843016 1013 1699189 -856173 303 983 0.00
04/29/2015 706.21 843692 0 1708378 -864686 240 580 0.00
04/30/2015 706.09 843016 -1351 1717568 -874552 961 620 0.00
05/01/2015 705.94 841666 -1687 1726757 -- 1057 376 0.00
05/02/2015 705.77 840992 -1011 1735946 -- 1215 875 0.00
05/03/2015 705.59 839644 -1348 1745135 -905491 929 249 0.00
05/04/2015 705.48 838970 -1347 1754324 -915354 824 485 0.00
05/05/2015 705.42 838297 -673 1763514 -925216 851 512 0.00
05/06/2015 705.46 838970 0 1772703 -933733 610 950 0.00
05/07/2015 705.33 837625 -1681 1781892 -944267 1069 391 0.00
05/08/2015 705.26 837625 -1008 1791081 -- 1000 1000 0.34
05/09/2015 705.07 836281 -1008 1800270 -- 1308 631 0.00
05/10/2015 705.11 836281 0 1809459 -973850 859 859 0.00
05/11/2015 705.29 837625 1008 1818648 -981023 720 1397 0.00
05/12/2015 705.18 836952 -1008 1827838 -990886 931 592 0.00
05/13/2015 704.96 835609 -2014 1837027 -1001418 1358 681 0.00
05/14/2015 704.80 834267 -1677 1846216 -1011949 1260 583 0.00
05/15/2015 704.78 834267 -1005 1855405 -- 944 944 0.00
05/16/2015 704.76 834267 0 1864594 -- 910 910 0.00
05/17/2015 704.60 832926 -1005 1873784 -1040858 1310 633 0.00
05/18/2015 704.54 832257 -1339 1882973 -1050716 1040 703 0.00
05/19/2015 704.55 832257 335 1892162 -1059905 936 936 0.00
05/20/2015 704.48 832257 -670 1901351 -1069094 1178 1178 0.00
05/21/2015 704.50 832257 -670 1910541 -1078284 886 886 0.00
05/22/2015 704.50 832257 0 -- -- -- -- --
05/23/2015 704.25 830584 -1673 -- -- -- -- --
05/24/2015 -- -- -- -- -- -- -- --

Later | Latest

Warning! This data is preliminary and subject to revision.

Show DNP Map | Plot DNP Data | 1 Month DNP Data | Real-Time DNP Data | DNP Info